sensor_id;sensor_type;location;lat;lon;timestamp;P1;durP1;ratioP1;P2;durP2;ratioP2
75986;SDS011;75291;44.670;37.810;2024-01-06T00:01:13;6.55;;;4.60;;
75986;SDS011;75291;44.670;37.810;2024-01-06T00:02:18;7.90;;;4.57;;
75986;SDS011;75291;44.670;37.810;2024-01-06T00:03:21;8.07;;;5.47;;
75986;SDS011;75291;44.670;37.810;2024-01-06T00:04:24;7.82;;;5.10;;
75986;SDS011;75291;44.670;37.810;2024-01-06T00:05:28;6.65;;;4.20;;
75986;SDS011;75291;44.670;37.810;2024-01-06T00:06:32;7.43;;;4.13;;
75986;SDS011;75291;44.670;37.810;2024-01-06T00:07:35;7.97;;;4.45;;
75986;SDS011;75291;44.670;37.810;2024-01-06T00:08:39;7.22;;;4.50;;
75986;SDS011;75291;44.670;37.810;2024-01-06T00:09:43;5.88;;;4.00;;
75986;SDS011;75291;44.670;37.810;2024-01-06T00:10:46;6.40;;;4.20;;
75986;SDS011;75291;44.670;37.810;2024-01-06T00:11:50;7.72;;;4.88;;
75986;SDS011;75291;44.670;37.810;2024-01-06T00:12:53;8.32;;;4.68;;
75986;SDS011;75291;44.670;37.810;2024-01-06T00:13:57;8.00;;;4.28;;
75986;SDS011;75291;44.670;37.810;2024-01-06T00:15:02;8.30;;;4.70;;
75986;SDS011;75291;44.670;37.810;2024-01-06T00:16:07;6.93;;;4.45;;
75986;SDS011;75291;44.670;37.810;2024-01-06T00:17:11;6.38;;;4.15;;
75986;SDS011;75291;44.670;37.810;2024-01-06T00:18:15;8.90;;;5.28;;
75986;SDS011;75291;44.670;37.810;2024-01-06T00:19:19;9.10;;;4.63;;
75986;SDS011;75291;44.670;37.810;2024-01-06T00:20:23;9.35;;;5.05;;
75986;SDS011;75291;44.670;37.810;2024-01-06T00:21:27;7.50;;;4.25;;
75986;SDS011;75291;44.670;37.810;2024-01-06T00:22:30;8.13;;;4.82;;
75986;SDS011;75291;44.670;37.810;2024-01-06T00:23:34;6.60;;;4.50;;
75986;SDS011;75291;44.670;37.810;2024-01-06T00:24:38;6.25;;;4.00;;
75986;SDS011;75291;44.670;37.810;2024-01-06T00:25:42;8.93;;;4.72;;
75986;SDS011;75291;44.670;37.810;2024-01-06T00:26:46;7.97;;;4.38;;
75986;SDS011;75291;44.670;37.810;2024-01-06T00:27:50;6.45;;;4.25;;
75986;SDS011;75291;44.670;37.810;2024-01-06T00:28:54;6.88;;;4.00;;
75986;SDS011;75291;44.670;37.810;2024-01-06T00:29:58;5.88;;;4.18;;
75986;SDS011;75291;44.670;37.810;2024-01-06T00:31:04;6.78;;;4.80;;
75986;SDS011;75291;44.670;37.810;2024-01-06T00:32:08;7.38;;;4.00;;
75986;SDS011;75291;44.670;37.810;2024-01-06T00:33:12;8.25;;;4.50;;
75986;SDS011;75291;44.670;37.810;2024-01-06T00:34:16;10.57;;;5.43;;
75986;SDS011;75291;44.670;37.810;2024-01-06T00:35:19;9.68;;;6.40;;
75986;SDS011;75291;44.670;37.810;2024-01-06T00:36:23;11.57;;;6.68;;
75986;SDS011;75291;44.670;37.810;2024-01-06T00:37:27;11.88;;;6.10;;
75986;SDS011;75291;44.670;37.810;2024-01-06T00:38:31;9.52;;;6.55;;
75986;SDS011;75291;44.670;37.810;2024-01-06T00:39:34;11.77;;;7.65;;
75986;SDS011;75291;44.670;37.810;2024-01-06T00:40:37;17.17;;;9.75;;
75986;SDS011;75291;44.670;37.810;2024-01-06T00:41:41;14.95;;;9.02;;
75986;SDS011;75291;44.670;37.810;2024-01-06T00:42:45;15.10;;;9.23;;
75986;SDS011;75291;44.670;37.810;2024-01-06T00:43:48;11.93;;;8.15;;
75986;SDS011;75291;44.670;37.810;2024-01-06T00:44:52;12.23;;;8.13;;
75986;SDS011;75291;44.670;37.810;2024-01-06T00:45:55;14.85;;;9.73;;
75986;SDS011;75291;44.670;37.810;2024-01-06T00:46:59;15.23;;;8.45;;
75986;SDS011;75291;44.670;37.810;2024-01-06T00:48:03;11.48;;;8.60;;
75986;SDS011;75291;44.670;37.810;2024-01-06T00:49:07;12.50;;;8.70;;
75986;SDS011;75291;44.670;37.810;2024-01-06T00:50:11;13.23;;;8.25;;
75986;SDS011;75291;44.670;37.810;2024-01-06T00:51:15;11.95;;;8.25;;
75986;SDS011;75291;44.670;37.810;2024-01-06T00:52:18;13.60;;;7.47;;
75986;SDS011;75291;44.670;37.810;2024-01-06T00:53:22;12.90;;;7.70;;
75986;SDS011;75291;44.670;37.810;2024-01-06T00:54:25;11.73;;;7.78;;
75986;SDS011;75291;44.670;37.810;2024-01-06T00:55:28;12.57;;;8.15;;
75986;SDS011;75291;44.670;37.810;2024-01-06T00:56:32;14.27;;;7.60;;
75986;SDS011;75291;44.670;37.810;2024-01-06T00:57:35;13.13;;;8.38;;
75986;SDS011;75291;44.670;37.810;2024-01-06T00:58:40;11.77;;;7.25;;
75986;SDS011;75291;44.670;37.810;2024-01-06T00:59:44;13.50;;;7.68;;
75986;SDS011;75291;44.670;37.810;2024-01-06T01:00:48;12.93;;;7.90;;
75986;SDS011;75291;44.670;37.810;2024-01-06T01:01:51;13.63;;;7.63;;
75986;SDS011;75291;44.670;37.810;2024-01-06T01:02:54;10.93;;;7.28;;
75986;SDS011;75291;44.670;37.810;2024-01-06T01:03:58;14.63;;;8.30;;
75986;SDS011;75291;44.670;37.810;2024-01-06T01:05:02;12.63;;;7.25;;
75986;SDS011;75291;44.670;37.810;2024-01-06T01:06:05;11.55;;;7.57;;
75986;SDS011;75291;44.670;37.810;2024-01-06T01:07:09;13.00;;;7.85;;
75986;SDS011;75291;44.670;37.810;2024-01-06T01:08:13;11.30;;;7.43;;
75986;SDS011;75291;44.670;37.810;2024-01-06T01:09:17;12.10;;;7.82;;
75986;SDS011;75291;44.670;37.810;2024-01-06T01:10:20;12.10;;;7.78;;
75986;SDS011;75291;44.670;37.810;2024-01-06T01:11:24;12.18;;;7.95;;
75986;SDS011;75291;44.670;37.810;2024-01-06T01:12:28;12.65;;;7.93;;
75986;SDS011;75291;44.670;37.810;2024-01-06T01:13:33;12.30;;;8.77;;
75986;SDS011;75291;44.670;37.810;2024-01-06T01:14:36;12.85;;;8.13;;
75986;SDS011;75291;44.670;37.810;2024-01-06T01:15:41;12.70;;;7.45;;
75986;SDS011;75291;44.670;37.810;2024-01-06T01:16:45;13.50;;;7.30;;
75986;SDS011;75291;44.670;37.810;2024-01-06T01:17:49;14.82;;;8.20;;
75986;SDS011;75291;44.670;37.810;2024-01-06T01:18:53;13.05;;;7.72;;
75986;SDS011;75291;44.670;37.810;2024-01-06T01:19:57;13.13;;;7.38;;
75986;SDS011;75291;44.670;37.810;2024-01-06T01:21:00;11.63;;;7.55;;
75986;SDS011;75291;44.670;37.810;2024-01-06T01:22:03;11.40;;;7.85;;
75986;SDS011;75291;44.670;37.810;2024-01-06T01:23:07;12.68;;;7.20;;
75986;SDS011;75291;44.670;37.810;2024-01-06T01:24:11;11.52;;;7.38;;
75986;SDS011;75291;44.670;37.810;2024-01-06T01:25:15;12.32;;;7.35;;
75986;SDS011;75291;44.670;37.810;2024-01-06T01:26:19;14.65;;;7.57;;
75986;SDS011;75291;44.670;37.810;2024-01-06T01:27:23;18.30;;;8.90;;
75986;SDS011;75291;44.670;37.810;2024-01-06T01:28:26;19.00;;;9.80;;
75986;SDS011;75291;44.670;37.810;2024-01-06T01:29:30;20.95;;;9.18;;
75986;SDS011;75291;44.670;37.810;2024-01-06T01:30:34;21.30;;;10.80;;
75986;SDS011;75291;44.670;37.810;2024-01-06T01:31:38;20.25;;;10.10;;
75986;SDS011;75291;44.670;37.810;2024-01-06T01:32:42;21.00;;;9.07;;
75986;SDS011;75291;44.670;37.810;2024-01-06T01:33:45;18.50;;;9.35;;
75986;SDS011;75291;44.670;37.810;2024-01-06T01:34:48;15.18;;;8.65;;
75986;SDS011;75291;44.670;37.810;2024-01-06T01:35:52;12.75;;;7.72;;
75986;SDS011;75291;44.670;37.810;2024-01-06T01:36:56;19.60;;;8.63;;
75986;SDS011;75291;44.670;37.810;2024-01-06T01:38:00;12.85;;;7.70;;
75986;SDS011;75291;44.670;37.810;2024-01-06T01:39:04;15.52;;;7.60;;
75986;SDS011;75291;44.670;37.810;2024-01-06T01:40:08;11.18;;;7.40;;
75986;SDS011;75291;44.670;37.810;2024-01-06T01:41:12;10.48;;;7.50;;
75986;SDS011;75291;44.670;37.810;2024-01-06T01:42:15;10.48;;;6.47;;
75986;SDS011;75291;44.670;37.810;2024-01-06T01:43:19;12.48;;;5.80;;
75986;SDS011;75291;44.670;37.810;2024-01-06T01:44:24;9.50;;;6.10;;
75986;SDS011;75291;44.670;37.810;2024-01-06T01:45:28;9.75;;;6.07;;
75986;SDS011;75291;44.670;37.810;2024-01-06T01:46:32;10.23;;;6.70;;
75986;SDS011;75291;44.670;37.810;2024-01-06T01:47:36;12.65;;;5.85;;
75986;SDS011;75291;44.670;37.810;2024-01-06T01:48:42;11.90;;;6.90;;
75986;SDS011;75291;44.670;37.810;2024-01-06T01:49:46;14.18;;;6.97;;
75986;SDS011;75291;44.670;37.810;2024-01-06T01:50:50;10.75;;;6.68;;
75986;SDS011;75291;44.670;37.810;2024-01-06T01:51:54;13.45;;;6.93;;
75986;SDS011;75291;44.670;37.810;2024-01-06T01:52:58;14.52;;;7.45;;
75986;SDS011;75291;44.670;37.810;2024-01-06T01:54:03;11.18;;;6.80;;
75986;SDS011;75291;44.670;37.810;2024-01-06T01:55:09;15.02;;;7.70;;
75986;SDS011;75291;44.670;37.810;2024-01-06T01:56:13;13.45;;;7.32;;
75986;SDS011;75291;44.670;37.810;2024-01-06T01:57:17;14.50;;;8.05;;
75986;SDS011;75291;44.670;37.810;2024-01-06T01:58:24;15.95;;;7.00;;
75986;SDS011;75291;44.670;37.810;2024-01-06T01:59:27;12.38;;;6.85;;
75986;SDS011;75291;44.670;37.810;2024-01-06T02:00:31;12.00;;;6.53;;
75986;SDS011;75291;44.670;37.810;2024-01-06T02:01:35;12.55;;;5.82;;
75986;SDS011;75291;44.670;37.810;2024-01-06T02:02:39;12.05;;;7.32;;
75986;SDS011;75291;44.670;37.810;2024-01-06T02:03:43;11.77;;;6.70;;
75986;SDS011;75291;44.670;37.810;2024-01-06T02:04:46;11.68;;;5.82;;
75986;SDS011;75291;44.670;37.810;2024-01-06T02:05:50;10.32;;;4.63;;
75986;SDS011;75291;44.670;37.810;2024-01-06T02:06:54;9.75;;;5.28;;
75986;SDS011;75291;44.670;37.810;2024-01-06T02:07:58;9.50;;;4.93;;
75986;SDS011;75291;44.670;37.810;2024-01-06T02:09:02;8.45;;;3.92;;
75986;SDS011;75291;44.670;37.810;2024-01-06T02:10:07;8.70;;;4.80;;
75986;SDS011;75291;44.670;37.810;2024-01-06T02:11:11;9.10;;;3.85;;
75986;SDS011;75291;44.670;37.810;2024-01-06T02:12:15;8.00;;;4.20;;
75986;SDS011;75291;44.670;37.810;2024-01-06T02:13:18;9.95;;;5.13;;
75986;SDS011;75291;44.670;37.810;2024-01-06T02:14:22;10.65;;;5.72;;
75986;SDS011;75291;44.670;37.810;2024-01-06T02:15:25;11.80;;;5.07;;
75986;SDS011;75291;44.670;37.810;2024-01-06T02:16:29;8.25;;;4.38;;
75986;SDS011;75291;44.670;37.810;2024-01-06T02:17:33;6.82;;;4.47;;
75986;SDS011;75291;44.670;37.810;2024-01-06T02:18:37;7.38;;;4.55;;
75986;SDS011;75291;44.670;37.810;2024-01-06T02:19:41;6.07;;;4.40;;
75986;SDS011;75291;44.670;37.810;2024-01-06T02:20:45;9.32;;;4.18;;
75986;SDS011;75291;44.670;37.810;2024-01-06T02:21:52;7.35;;;4.15;;
75986;SDS011;75291;44.670;37.810;2024-01-06T02:22:56;7.97;;;4.47;;
75986;SDS011;75291;44.670;37.810;2024-01-06T02:24:02;11.25;;;4.63;;
75986;SDS011;75291;44.670;37.810;2024-01-06T02:25:07;8.38;;;3.90;;
75986;SDS011;75291;44.670;37.810;2024-01-06T02:26:16;8.35;;;3.95;;
75986;SDS011;75291;44.670;37.810;2024-01-06T02:27:20;8.02;;;3.60;;
75986;SDS011;75291;44.670;37.810;2024-01-06T02:28:24;7.20;;;4.20;;
75986;SDS011;75291;44.670;37.810;2024-01-06T02:29:27;6.70;;;4.13;;
75986;SDS011;75291;44.670;37.810;2024-01-06T02:30:31;11.35;;;4.90;;
75986;SDS011;75291;44.670;37.810;2024-01-06T02:31:35;6.80;;;4.55;;
75986;SDS011;75291;44.670;37.810;2024-01-06T02:32:39;6.40;;;4.38;;
75986;SDS011;75291;44.670;37.810;2024-01-06T02:33:43;7.35;;;4.70;;
75986;SDS011;75291;44.670;37.810;2024-01-06T02:34:47;10.52;;;4.82;;
75986;SDS011;75291;44.670;37.810;2024-01-06T02:35:50;9.05;;;4.28;;
75986;SDS011;75291;44.670;37.810;2024-01-06T02:36:53;6.88;;;4.53;;
75986;SDS011;75291;44.670;37.810;2024-01-06T02:37:57;8.93;;;5.13;;
75986;SDS011;75291;44.670;37.810;2024-01-06T02:39:01;8.90;;;4.47;;
75986;SDS011;75291;44.670;37.810;2024-01-06T02:40:06;9.65;;;4.15;;
75986;SDS011;75291;44.670;37.810;2024-01-06T02:41:10;9.23;;;4.22;;
75986;SDS011;75291;44.670;37.810;2024-01-06T02:42:14;7.32;;;3.70;;
75986;SDS011;75291;44.670;37.810;2024-01-06T02:43:18;9.27;;;4.38;;
75986;SDS011;75291;44.670;37.810;2024-01-06T02:44:22;6.25;;;3.63;;
75986;SDS011;75291;44.670;37.810;2024-01-06T02:45:26;5.80;;;4.15;;
75986;SDS011;75291;44.670;37.810;2024-01-06T02:46:29;7.63;;;4.07;;
75986;SDS011;75291;44.670;37.810;2024-01-06T02:47:33;5.57;;;3.58;;
75986;SDS011;75291;44.670;37.810;2024-01-06T02:48:37;6.65;;;3.78;;
75986;SDS011;75291;44.670;37.810;2024-01-06T02:49:42;11.10;;;5.45;;
75986;SDS011;75291;44.670;37.810;2024-01-06T02:50:46;10.02;;;4.35;;
75986;SDS011;75291;44.670;37.810;2024-01-06T02:51:49;8.43;;;4.07;;
75986;SDS011;75291;44.670;37.810;2024-01-06T02:52:54;8.18;;;4.40;;
75986;SDS011;75291;44.670;37.810;2024-01-06T02:53:58;8.32;;;4.28;;
75986;SDS011;75291;44.670;37.810;2024-01-06T02:55:02;8.35;;;4.63;;
75986;SDS011;75291;44.670;37.810;2024-01-06T02:56:09;7.38;;;4.57;;
75986;SDS011;75291;44.670;37.810;2024-01-06T02:57:13;8.05;;;5.38;;
75986;SDS011;75291;44.670;37.810;2024-01-06T02:58:17;7.75;;;4.78;;
75986;SDS011;75291;44.670;37.810;2024-01-06T02:59:21;9.38;;;5.20;;
75986;SDS011;75291;44.670;37.810;2024-01-06T03:00:25;7.97;;;4.40;;
75986;SDS011;75291;44.670;37.810;2024-01-06T03:01:28;8.63;;;4.80;;
75986;SDS011;75291;44.670;37.810;2024-01-06T03:02:32;6.90;;;4.28;;
75986;SDS011;75291;44.670;37.810;2024-01-06T03:03:38;7.95;;;4.75;;
75986;SDS011;75291;44.670;37.810;2024-01-06T03:04:43;8.73;;;5.15;;
75986;SDS011;75291;44.670;37.810;2024-01-06T03:05:47;6.30;;;4.90;;
75986;SDS011;75291;44.670;37.810;2024-01-06T03:06:52;9.15;;;5.07;;
75986;SDS011;75291;44.670;37.810;2024-01-06T03:07:56;6.47;;;4.72;;
75986;SDS011;75291;44.670;37.810;2024-01-06T03:09:00;6.40;;;4.63;;
75986;SDS011;75291;44.670;37.810;2024-01-06T03:10:04;8.80;;;4.88;;
75986;SDS011;75291;44.670;37.810;2024-01-06T03:11:08;6.43;;;4.68;;
75986;SDS011;75291;44.670;37.810;2024-01-06T03:12:16;7.50;;;5.00;;
75986;SDS011;75291;44.670;37.810;2024-01-06T03:13:20;7.75;;;4.65;;
75986;SDS011;75291;44.670;37.810;2024-01-06T03:14:24;8.60;;;5.18;;
75986;SDS011;75291;44.670;37.810;2024-01-06T03:15:28;9.18;;;5.40;;
75986;SDS011;75291;44.670;37.810;2024-01-06T03:16:32;6.90;;;5.13;;
75986;SDS011;75291;44.670;37.810;2024-01-06T03:17:37;8.18;;;5.18;;
75986;SDS011;75291;44.670;37.810;2024-01-06T03:18:41;7.88;;;5.00;;
75986;SDS011;75291;44.670;37.810;2024-01-06T03:19:45;9.63;;;5.72;;
75986;SDS011;75291;44.670;37.810;2024-01-06T03:20:49;10.27;;;5.22;;
75986;SDS011;75291;44.670;37.810;2024-01-06T03:21:52;10.48;;;5.05;;
75986;SDS011;75291;44.670;37.810;2024-01-06T03:22:56;10.18;;;5.50;;
75986;SDS011;75291;44.670;37.810;2024-01-06T03:23:59;8.50;;;5.13;;
75986;SDS011;75291;44.670;37.810;2024-01-06T03:25:03;7.28;;;4.88;;
75986;SDS011;75291;44.670;37.810;2024-01-06T03:26:09;8.38;;;5.10;;
75986;SDS011;75291;44.670;37.810;2024-01-06T03:27:12;8.93;;;6.72;;
75986;SDS011;75291;44.670;37.810;2024-01-06T03:28:16;9.27;;;6.05;;
75986;SDS011;75291;44.670;37.810;2024-01-06T03:29:20;9.05;;;5.72;;
75986;SDS011;75291;44.670;37.810;2024-01-06T03:30:24;9.20;;;4.97;;
75986;SDS011;75291;44.670;37.810;2024-01-06T03:31:28;9.45;;;5.45;;
75986;SDS011;75291;44.670;37.810;2024-01-06T03:32:33;8.50;;;5.68;;
75986;SDS011;75291;44.670;37.810;2024-01-06T03:33:37;10.80;;;5.68;;
75986;SDS011;75291;44.670;37.810;2024-01-06T03:34:41;10.23;;;6.60;;
75986;SDS011;75291;44.670;37.810;2024-01-06T03:35:46;9.45;;;5.82;;
75986;SDS011;75291;44.670;37.810;2024-01-06T03:36:50;8.25;;;5.93;;
75986;SDS011;75291;44.670;37.810;2024-01-06T03:37:54;8.60;;;5.55;;
75986;SDS011;75291;44.670;37.810;2024-01-06T03:38:58;8.85;;;6.13;;
75986;SDS011;75291;44.670;37.810;2024-01-06T03:40:03;9.52;;;6.78;;
75986;SDS011;75291;44.670;37.810;2024-01-06T03:41:08;9.00;;;5.95;;
75986;SDS011;75291;44.670;37.810;2024-01-06T03:42:11;9.32;;;5.65;;
75986;SDS011;75291;44.670;37.810;2024-01-06T03:43:15;8.38;;;5.65;;
75986;SDS011;75291;44.670;37.810;2024-01-06T03:44:19;9.25;;;5.53;;
75986;SDS011;75291;44.670;37.810;2024-01-06T03:45:22;9.43;;;5.45;;
75986;SDS011;75291;44.670;37.810;2024-01-06T03:46:26;8.57;;;5.65;;
75986;SDS011;75291;44.670;37.810;2024-01-06T03:47:30;9.63;;;6.00;;
75986;SDS011;75291;44.670;37.810;2024-01-06T03:48:34;10.90;;;5.80;;
75986;SDS011;75291;44.670;37.810;2024-01-06T03:49:38;9.35;;;5.95;;
75986;SDS011;75291;44.670;37.810;2024-01-06T03:50:42;10.63;;;5.68;;
75986;SDS011;75291;44.670;37.810;2024-01-06T03:51:46;10.68;;;6.45;;
75986;SDS011;75291;44.670;37.810;2024-01-06T03:52:51;9.80;;;5.90;;
75986;SDS011;75291;44.670;37.810;2024-01-06T03:53:54;8.88;;;5.68;;
75986;SDS011;75291;44.670;37.810;2024-01-06T03:54:58;8.60;;;5.07;;
75986;SDS011;75291;44.670;37.810;2024-01-06T03:56:02;10.77;;;5.47;;
75986;SDS011;75291;44.670;37.810;2024-01-06T03:57:07;10.40;;;5.60;;
75986;SDS011;75291;44.670;37.810;2024-01-06T03:58:10;9.35;;;6.20;;
75986;SDS011;75291;44.670;37.810;2024-01-06T03:59:14;10.80;;;6.10;;
75986;SDS011;75291;44.670;37.810;2024-01-06T04:00:18;7.78;;;5.57;;
75986;SDS011;75291;44.670;37.810;2024-01-06T04:01:21;9.02;;;6.70;;
75986;SDS011;75291;44.670;37.810;2024-01-06T04:02:25;8.00;;;6.00;;
75986;SDS011;75291;44.670;37.810;2024-01-06T04:03:30;7.32;;;4.80;;
75986;SDS011;75291;44.670;37.810;2024-01-06T04:04:34;7.30;;;5.22;;
75986;SDS011;75291;44.670;37.810;2024-01-06T04:05:37;8.13;;;4.45;;
75986;SDS011;75291;44.670;37.810;2024-01-06T04:06:40;8.15;;;4.80;;
75986;SDS011;75291;44.670;37.810;2024-01-06T04:07:44;11.25;;;5.60;;
75986;SDS011;75291;44.670;37.810;2024-01-06T04:08:49;8.75;;;5.43;;
75986;SDS011;75291;44.670;37.810;2024-01-06T04:09:53;8.55;;;5.03;;
75986;SDS011;75291;44.670;37.810;2024-01-06T04:10:57;8.35;;;5.10;;
75986;SDS011;75291;44.670;37.810;2024-01-06T04:12:01;10.80;;;6.30;;
75986;SDS011;75291;44.670;37.810;2024-01-06T04:13:05;13.13;;;7.18;;
75986;SDS011;75291;44.670;37.810;2024-01-06T04:14:09;10.85;;;7.38;;
75986;SDS011;75291;44.670;37.810;2024-01-06T04:15:13;14.13;;;8.82;;
75986;SDS011;75291;44.670;37.810;2024-01-06T04:16:17;14.23;;;9.98;;
75986;SDS011;75291;44.670;37.810;2024-01-06T04:17:21;17.00;;;9.68;;
75986;SDS011;75291;44.670;37.810;2024-01-06T04:18:24;15.50;;;9.88;;
75986;SDS011;75291;44.670;37.810;2024-01-06T04:19:29;13.57;;;9.57;;
75986;SDS011;75291;44.670;37.810;2024-01-06T04:20:32;12.52;;;8.55;;
75986;SDS011;75291;44.670;37.810;2024-01-06T04:21:37;14.80;;;8.98;;
75986;SDS011;75291;44.670;37.810;2024-01-06T04:22:41;13.70;;;8.75;;
75986;SDS011;75291;44.670;37.810;2024-01-06T04:23:44;12.75;;;8.68;;
75986;SDS011;75291;44.670;37.810;2024-01-06T04:24:48;12.27;;;7.68;;
75986;SDS011;75291;44.670;37.810;2024-01-06T04:25:51;12.13;;;8.15;;
75986;SDS011;75291;44.670;37.810;2024-01-06T04:26:54;11.20;;;7.25;;
75986;SDS011;75291;44.670;37.810;2024-01-06T04:27:59;13.45;;;8.13;;
75986;SDS011;75291;44.670;37.810;2024-01-06T04:29:02;12.50;;;7.75;;
75986;SDS011;75291;44.670;37.810;2024-01-06T04:30:06;14.93;;;8.80;;
75986;SDS011;75291;44.670;37.810;2024-01-06T04:31:10;13.73;;;8.80;;
75986;SDS011;75291;44.670;37.810;2024-01-06T04:32:14;12.65;;;8.63;;
75986;SDS011;75291;44.670;37.810;2024-01-06T04:33:18;12.43;;;8.48;;
75986;SDS011;75291;44.670;37.810;2024-01-06T04:34:23;10.98;;;7.68;;
75986;SDS011;75291;44.670;37.810;2024-01-06T04:35:27;17.65;;;8.63;;
75986;SDS011;75291;44.670;37.810;2024-01-06T04:36:31;11.55;;;8.48;;
75986;SDS011;75291;44.670;37.810;2024-01-06T04:37:35;16.60;;;7.70;;
75986;SDS011;75291;44.670;37.810;2024-01-06T04:38:40;11.48;;;7.30;;
75986;SDS011;75291;44.670;37.810;2024-01-06T04:39:43;9.05;;;5.65;;
75986;SDS011;75291;44.670;37.810;2024-01-06T04:40:47;7.88;;;4.88;;
75986;SDS011;75291;44.670;37.810;2024-01-06T04:41:52;7.90;;;4.72;;
75986;SDS011;75291;44.670;37.810;2024-01-06T04:42:55;7.30;;;5.07;;
75986;SDS011;75291;44.670;37.810;2024-01-06T04:43:59;8.40;;;5.07;;
75986;SDS011;75291;44.670;37.810;2024-01-06T04:45:03;7.57;;;4.63;;
75986;SDS011;75291;44.670;37.810;2024-01-06T04:46:07;7.10;;;4.20;;
75986;SDS011;75291;44.670;37.810;2024-01-06T04:47:11;8.98;;;4.40;;
75986;SDS011;75291;44.670;37.810;2024-01-06T04:48:14;7.28;;;4.80;;
75986;SDS011;75291;44.670;37.810;2024-01-06T04:49:19;6.85;;;4.95;;
75986;SDS011;75291;44.670;37.810;2024-01-06T04:50:23;6.53;;;4.82;;
75986;SDS011;75291;44.670;37.810;2024-01-06T04:51:26;7.80;;;4.40;;
75986;SDS011;75291;44.670;37.810;2024-01-06T04:52:31;9.52;;;5.45;;
75986;SDS011;75291;44.670;37.810;2024-01-06T04:53:36;7.60;;;4.97;;
75986;SDS011;75291;44.670;37.810;2024-01-06T04:54:41;9.20;;;5.82;;
75986;SDS011;75291;44.670;37.810;2024-01-06T04:55:45;12.35;;;6.03;;
75986;SDS011;75291;44.670;37.810;2024-01-06T04:56:49;8.80;;;5.55;;
75986;SDS011;75291;44.670;37.810;2024-01-06T04:57:52;7.28;;;5.07;;
75986;SDS011;75291;44.670;37.810;2024-01-06T04:58:56;12.65;;;6.82;;
75986;SDS011;75291;44.670;37.810;2024-01-06T05:00:01;8.55;;;5.32;;
75986;SDS011;75291;44.670;37.810;2024-01-06T05:01:05;10.00;;;5.60;;
75986;SDS011;75291;44.670;37.810;2024-01-06T05:02:09;7.53;;;4.95;;
75986;SDS011;75291;44.670;37.810;2024-01-06T05:03:14;9.45;;;5.05;;
75986;SDS011;75291;44.670;37.810;2024-01-06T05:04:17;6.43;;;4.40;;
75986;SDS011;75291;44.670;37.810;2024-01-06T05:05:22;9.65;;;5.80;;
75986;SDS011;75291;44.670;37.810;2024-01-06T05:06:25;12.13;;;5.72;;
75986;SDS011;75291;44.670;37.810;2024-01-06T05:07:30;9.48;;;5.20;;
75986;SDS011;75291;44.670;37.810;2024-01-06T05:08:34;9.75;;;5.32;;
75986;SDS011;75291;44.670;37.810;2024-01-06T05:09:41;10.60;;;5.68;;
75986;SDS011;75291;44.670;37.810;2024-01-06T05:10:45;9.75;;;5.38;;
75986;SDS011;75291;44.670;37.810;2024-01-06T05:11:50;9.15;;;5.28;;
75986;SDS011;75291;44.670;37.810;2024-01-06T05:12:54;11.48;;;4.95;;
75986;SDS011;75291;44.670;37.810;2024-01-06T05:13:57;10.40;;;5.00;;
75986;SDS011;75291;44.670;37.810;2024-01-06T05:15:02;8.50;;;5.07;;
75986;SDS011;75291;44.670;37.810;2024-01-06T05:16:07;9.95;;;6.20;;
75986;SDS011;75291;44.670;37.810;2024-01-06T05:17:11;12.73;;;5.70;;
75986;SDS011;75291;44.670;37.810;2024-01-06T05:18:16;15.88;;;7.50;;
75986;SDS011;75291;44.670;37.810;2024-01-06T05:19:20;18.15;;;8.93;;
75986;SDS011;75291;44.670;37.810;2024-01-06T05:20:25;18.65;;;8.75;;
75986;SDS011;75291;44.670;37.810;2024-01-06T05:21:29;18.20;;;9.20;;
75986;SDS011;75291;44.670;37.810;2024-01-06T05:22:33;14.25;;;6.97;;
75986;SDS011;75291;44.670;37.810;2024-01-06T05:23:36;12.88;;;6.00;;
75986;SDS011;75291;44.670;37.810;2024-01-06T05:24:40;9.50;;;6.32;;
75986;SDS011;75291;44.670;37.810;2024-01-06T05:25:45;16.95;;;11.40;;
75986;SDS011;75291;44.670;37.810;2024-01-06T05:26:49;24.02;;;17.92;;
75986;SDS011;75291;44.670;37.810;2024-01-06T05:27:53;23.63;;;16.80;;
75986;SDS011;75291;44.670;37.810;2024-01-06T05:28:58;22.33;;;13.77;;
75986;SDS011;75291;44.670;37.810;2024-01-06T05:30:02;15.98;;;11.20;;
75986;SDS011;75291;44.670;37.810;2024-01-06T05:31:05;14.50;;;10.00;;
75986;SDS011;75291;44.670;37.810;2024-01-06T05:32:10;16.23;;;10.07;;
75986;SDS011;75291;44.670;37.810;2024-01-06T05:33:15;13.23;;;8.32;;
75986;SDS011;75291;44.670;37.810;2024-01-06T05:34:20;14.80;;;8.02;;
75986;SDS011;75291;44.670;37.810;2024-01-06T05:35:23;14.60;;;7.70;;
75986;SDS011;75291;44.670;37.810;2024-01-06T05:36:27;16.73;;;7.72;;
75986;SDS011;75291;44.670;37.810;2024-01-06T05:37:31;13.98;;;9.15;;
75986;SDS011;75291;44.670;37.810;2024-01-06T05:38:38;15.57;;;10.07;;
75986;SDS011;75291;44.670;37.810;2024-01-06T05:39:44;12.00;;;6.85;;
75986;SDS011;75291;44.670;37.810;2024-01-06T05:40:47;11.52;;;5.45;;
75986;SDS011;75291;44.670;37.810;2024-01-06T05:41:51;8.40;;;5.80;;
75986;SDS011;75291;44.670;37.810;2024-01-06T05:42:54;8.40;;;5.22;;
75986;SDS011;75291;44.670;37.810;2024-01-06T05:43:59;12.45;;;7.00;;
75986;SDS011;75291;44.670;37.810;2024-01-06T05:45:03;9.40;;;5.65;;
75986;SDS011;75291;44.670;37.810;2024-01-06T05:46:08;11.38;;;6.18;;
75986;SDS011;75291;44.670;37.810;2024-01-06T05:47:13;9.35;;;5.95;;
75986;SDS011;75291;44.670;37.810;2024-01-06T05:48:18;11.25;;;6.18;;
75986;SDS011;75291;44.670;37.810;2024-01-06T05:49:22;9.93;;;5.97;;
75986;SDS011;75291;44.670;37.810;2024-01-06T05:50:26;8.65;;;5.72;;
75986;SDS011;75291;44.670;37.810;2024-01-06T05:51:30;11.85;;;5.68;;
75986;SDS011;75291;44.670;37.810;2024-01-06T05:52:34;12.02;;;6.18;;
75986;SDS011;75291;44.670;37.810;2024-01-06T05:53:38;10.50;;;5.55;;
75986;SDS011;75291;44.670;37.810;2024-01-06T05:54:42;13.15;;;6.65;;
75986;SDS011;75291;44.670;37.810;2024-01-06T05:55:47;10.63;;;6.90;;
75986;SDS011;75291;44.670;37.810;2024-01-06T05:56:51;8.65;;;6.68;;
75986;SDS011;75291;44.670;37.810;2024-01-06T05:57:54;9.82;;;5.55;;
75986;SDS011;75291;44.670;37.810;2024-01-06T05:58:58;10.43;;;6.50;;
75986;SDS011;75291;44.670;37.810;2024-01-06T06:00:02;11.23;;;6.20;;
75986;SDS011;75291;44.670;37.810;2024-01-06T06:01:13;13.30;;;6.68;;
75986;SDS011;75291;44.670;37.810;2024-01-06T06:02:17;15.32;;;7.32;;
75986;SDS011;75291;44.670;37.810;2024-01-06T06:03:21;11.52;;;6.10;;
75986;SDS011;75291;44.670;37.810;2024-01-06T06:04:29;13.73;;;9.02;;
75986;SDS011;75291;44.670;37.810;2024-01-06T06:05:33;17.13;;;9.90;;
75986;SDS011;75291;44.670;37.810;2024-01-06T06:06:37;17.55;;;11.00;;
75986;SDS011;75291;44.670;37.810;2024-01-06T06:07:42;13.90;;;9.10;;
75986;SDS011;75291;44.670;37.810;2024-01-06T06:08:46;10.65;;;7.50;;
75986;SDS011;75291;44.670;37.810;2024-01-06T06:09:51;10.10;;;6.75;;
75986;SDS011;75291;44.670;37.810;2024-01-06T06:10:57;10.20;;;6.28;;
75986;SDS011;75291;44.670;37.810;2024-01-06T06:12:15;10.65;;;6.63;;
75986;SDS011;75291;44.670;37.810;2024-01-06T06:13:19;8.10;;;6.72;;
75986;SDS011;75291;44.670;37.810;2024-01-06T06:14:23;8.18;;;6.35;;
75986;SDS011;75291;44.670;37.810;2024-01-06T06:15:27;10.70;;;6.70;;
75986;SDS011;75291;44.670;37.810;2024-01-06T06:16:31;9.57;;;7.20;;
75986;SDS011;75291;44.670;37.810;2024-01-06T06:17:35;11.55;;;6.65;;
75986;SDS011;75291;44.670;37.810;2024-01-06T06:18:39;13.50;;;6.82;;